Crystal, Colorado
Current Conditions -  °F | °C
As of 11:57 AM on Thursday 23 Oct 2014 (Local Time) from K5SM Reporting Station
Clear Clear  
Wind Chill: 48°   Ceiling: Unl
Heat Index: 48°   Visibility: 10mi
Dew Point: 32°   Wind: 0mph
Humidity: 54%   Direction: NA
Pressure: 30.51"   Gusts: NA
Location:  39.2397°N, 107.215°W
Report Text: K5SM 231757Z AUTO 00000KT 10SM CLR 09/00 A3051 RMK AO2
Loading
Personal Weather Stations






























Interactive Weather Map
Tropical Storm Tracking
New forecast layout! Learn more

10-Day Weather Forecast

Advertisements
Track Severe Weather on mobile